Time;durP1;ratioP1;P1;durP2;ratioP2;P2;SDS_P1;SDS_P2;PMS_P1;PMS_P2;Temp;Humidity;BMP_temperature;BMP_pressure;BME280_temperature;BME280_humidity;BME280_pressure;Samples;Min_cycle;Max_cycle;Signal;HPM_P1;HPM_P2
2024/04/21 00:01:20;;;;;;;;;0.25;0.00;;;;;12.19;52.27;100459.19;146617;661;46008;-72
2024/04/21 00:04:16;;;;;;;;;1.00;1.00;;;;;12.16;51.98;100462.53;146607;574;47010;-72
2024/04/21 00:07:23;;;;;;;;;0.25;0.25;;;;;12.21;52.62;100462.72;146607;630;47008;-72
2024/04/21 00:10:40;;;;;;;;;1.75;0.75;;;;;11.41;52.61;100321.78;146611;713;46016;-72
2024/04/21 00:13:33;;;;;;;;;1.25;1.25;;;;;12.16;51.34;100456.47;146614;590;47008;-75
2024/04/21 00:16:43;;;;;;;;;1.00;0.00;;;;;12.10;51.98;100458.81;146610;643;47012;-74
2024/04/21 00:19:44;;;;;;;;;0.00;0.00;;;;;12.05;51.58;100456.00;146617;680;46020;-76
2024/04/21 00:22:52;;;;;;;;;0.50;0.50;;;;;11.99;51.44;100461.88;146612;714;47022;-74
2024/04/21 00:26:08;;;;;;;;;1.75;1.75;;;;;11.98;52.62;100459.19;146616;584;46046;-74
2024/04/21 00:29:04;;;;;;;;;1.00;1.00;;;;;11.95;51.69;100451.28;146608;587;47010;-75
2024/04/21 00:31:56;;;;;;;;;0.00;0.00;;;;;11.89;51.72;100457.09;146615;617;47021;-75
2024/04/21 00:35:09;;;;;;;;;0.00;0.00;;;;;11.82;50.69;100454.16;146610;609;46016;-76
2024/04/21 00:38:11;;;;;;;;;1.00;0.00;;;;;11.77;51.71;100464.34;146602;571;47020;-78
2024/04/21 00:41:18;;;;;;;;;0.25;0.00;;;;;11.78;52.99;100461.81;146607;567;47012;-77
2024/04/21 00:44:20;;;;;;;;;0.75;0.75;;;;;11.84;52.81;100463.78;146613;570;46912;-74
2024/04/21 00:47:13;;;;;;;;;2.00;1.00;;;;;11.87;52.86;100466.56;146611;600;46017;-78
2024/04/21 00:50:12;;;;;;;;;1.25;1.25;;;;;11.90;53.40;100469.28;146613;569;46008;-78
2024/04/21 00:53:23;;;;;;;;;0.50;0.50;;;;;11.90;53.84;100464.09;146607;566;46017;-79
2024/04/21 00:56:26;;;;;;;;;1.00;1.00;;;;;11.85;54.37;100456.91;146614;584;47020;-77
2024/04/21 00:59:22;;;;;;;;;0.50;0.50;;;;;11.74;54.43;100457.34;146604;697;47915;-70
2024/04/21 01:02:33;;;;;;;;;2.00;0.75;;;;;11.59;54.47;100458.38;146617;675;46020;-70
2024/04/21 01:05:44;;;;;;;;;0.00;0.00;;;;;11.51;55.00;100455.44;146611;628;48016;-70
2024/04/21 01:08:47;;;;;;;;;3.00;1.00;;;;;11.43;55.28;100449.03;146604;630;46021;-71
2024/04/21 01:11:54;;;;;;;;;0.50;0.00;;;;;11.33;54.89;100446.03;146611;700;46914;-76
2024/04/21 01:14:58;;;;;;;;;1.00;1.00;;;;;11.24;54.86;100440.44;146615;594;46024;-76
2024/04/21 01:18:04;;;;;;;;;0.00;0.00;;;;;11.16;55.39;100447.00;146608;574;47010;-78
2024/04/21 01:21:05;;;;;;;;;0.00;0.00;;;;;11.06;55.07;100440.53;146614;564;46020;-77
2024/04/21 01:24:06;;;;;;;;;0.00;0.00;;;;;11.01;55.86;100442.03;146612;600;46913;-79
2024/04/21 01:27:33;;;;;;;;;1.50;0.75;;;;;9.94;55.96;100261.75;146614;638;46047;-77
2024/04/21 01:30:36;;;;;;;;;0.00;0.00;;;;;10.97;55.54;100444.44;146610;569;46016;-78
2024/04/21 01:33:42;;;;;;;;;0.50;0.00;;;;;10.90;55.98;100438.03;146615;708;46008;-77
2024/04/21 01:36:46;;;;;;;;;0.00;0.00;;;;;10.87;55.44;100453.47;146609;681;47016;-79
2024/04/21 01:39:45;;;;;;;;;0.00;0.00;;;;;10.79;54.71;100447.94;146602;624;46021;-78
2024/04/21 01:43:04;;;;;;;;;1.25;1.00;;;;;10.71;54.95;100456.19;146609;646;47012;-83
2024/04/21 01:46:02;;;;;;;;;0.00;0.00;;;;;10.58;54.39;100445.25;146614;629;47008;-82
2024/04/21 01:49:04;;;;;;;;;0.00;0.00;;;;;10.52;55.09;100450.13;146609;685;46016;-82
2024/04/21 01:52:05;;;;;;;;;0.00;0.00;;;;;10.47;55.60;100458.53;146617;576;46021;-81
2024/04/21 01:54:57;;;;;;;;;0.00;0.00;;;;;10.42;56.31;100460.91;146610;623;47913;-80
2024/04/21 01:58:14;;;;;;;;;0.75;0.75;;;;;9.58;55.79;100335.06;146613;564;47020;-82
2024/04/21 02:01:07;;;;;;;;;1.00;0.00;;;;;10.27;55.75;100466.22;146608;695;46016;-81
2024/04/21 02:04:05;;;;;;;;;1.00;0.00;;;;;10.27;55.67;100462.75;146616;591;47008;-81
2024/04/21 02:07:01;;;;;;;;;1.25;0.00;;;;;10.28;55.78;100461.94;146635;659;46016;-76
2024/04/21 02:10:01;;;;;;;;;0.50;0.50;;;;;10.28;55.70;100464.53;146608;581;46020;-75
2024/04/21 02:12:58;;;;;;;;;0.25;0.25;;;;;10.27;55.50;100461.06;146609;590;47010;-75
2024/04/21 02:16:01;;;;;;;;;0.00;0.00;;;;;10.26;55.64;100466.16;146613;570;47021;-75
2024/04/21 02:19:03;;;;;;;;;0.25;0.25;;;;;10.25;56.20;100461.75;146612;606;46016;-75
2024/04/21 02:22:01;;;;;;;;;0.00;0.00;;;;;10.28;55.67;100457.66;146617;563;46008;-76
2024/04/21 02:24:53;;;;;;;;;0.75;0.75;;;;;10.33;56.42;100450.09;146607;572;46016;-73
2024/04/21 02:28:15;;;;;;;;;1.00;0.75;;;;;10.35;56.74;100458.84;146614;569;47008;-71
2024/04/21 02:31:10;;;;;;;;;0.00;0.00;;;;;10.33;57.15;100466.53;146607;671;47016;-71
2024/04/21 02:34:02;;;;;;;;;3.00;1.00;;;;;10.29;57.14;100461.13;146616;577;46020;-73
2024/04/21 02:37:24;;;;;;;;;0.00;0.00;;;;;9.37;57.06;100315.06;146608;601;47010;-73
2024/04/21 02:40:26;;;;;;;;;1.50;1.50;;;;;10.18;57.59;100471.81;146600;602;47008;-73
2024/04/21 02:43:40;;;;;;;;;2.00;2.00;;;;;10.09;58.59;100474.00;146609;569;46016;-72
2024/04/21 02:46:49;;;;;;;;;7.00;6.50;;;;;10.04;58.30;100471.97;146613;597;46010;-72
2024/04/21 02:49:46;;;;;;;;;2.00;2.00;;;;;9.98;58.77;100474.28;146610;614;47016;-71
2024/04/21 02:52:46;;;;;;;;;1.75;0.75;;;;;9.94;59.05;100475.81;146615;617;47008;-72
2024/04/21 02:56:00;;;;;;;;;2.75;2.75;;;;;9.99;59.34;100483.81;146609;597;46910;-74
2024/04/21 02:59:17;;;;;;;;;2.00;2.00;;;;;9.22;58.48;100342.78;146612;621;47020;-74
2024/04/21 03:02:28;;;;;;;;;0.75;0.00;;;;;10.12;59.36;100489.69;146606;606;47016;-76
2024/04/21 03:05:25;;;;;;;;;0.75;0.75;;;;;10.13;59.69;100483.69;146615;618;46008;-75
2024/04/21 03:08:22;;;;;;;;;2.25;1.25;;;;;10.03;60.05;100484.06;146606;590;46016;-74
2024/04/21 03:11:23;;;;;;;;;3.00;3.00;;;;;9.92;59.82;100486.09;146603;577;47010;-75
2024/04/21 03:14:27;;;;;;;;;5.75;4.75;;;;;9.85;60.18;100470.19;146609;570;47013;-75
2024/04/21 03:17:22;;;;;;;;;5.00;4.00;;;;;9.80;59.89;100474.22;146616;616;46020;-75
2024/04/21 03:20:14;;;;;;;;;4.00;2.00;;;;;9.75;60.29;100470.50;146609;572;46016;-74
2024/04/21 03:23:06;;;;;;;;;3.75;2.50;;;;;9.71;60.23;100464.28;146615;592;46021;-75
2024/04/21 03:26:05;;;;;;;;;2.50;1.50;;;;;9.73;59.88;100462.69;146607;569;47012;-73
2024/04/21 03:29:04;;;;;;;;;2.50;1.75;;;;;9.77;60.14;100466.31;146614;569;47009;-75
2024/04/21 03:32:11;;;;;;;;;2.25;1.00;;;;;9.84;59.40;100471.84;146610;599;47912;-74
2024/04/21 03:35:04;;;;;;;;;2.00;2.00;;;;;9.84;59.81;100473.56;146614;595;46020;-73
2024/04/21 03:38:08;;;;;;;;;1.50;1.50;;;;;9.83;59.14;100471.81;146610;620;46010;-72
2024/04/21 03:41:22;;;;;;;;;2.00;2.00;;;;;9.88;59.10;100468.63;146607;629;46020;-73
2024/04/21 03:44:19;;;;;;;;;1.00;1.00;;;;;9.93;59.76;100476.63;146611;578;46017;-73
2024/04/21 03:47:30;;;;;;;;;2.25;1.50;;;;;9.99;58.91;100474.31;146613;575;46008;-73
2024/04/21 03:50:31;;;;;;;;;1.00;0.25;;;;;10.06;59.08;100471.25;146609;631;47010;-73
2024/04/21 03:53:28;;;;;;;;;3.50;3.50;;;;;10.09;59.01;100478.25;146615;565;46020;-73
2024/04/21 03:56:34;;;;;;;;;;;;;;;;;;;;;
2024/04/21 03:59:40;;;;;;;;;2.25;2.25;;;;;10.00;58.96;100470.94;146615;608;47010;-72
2024/04/21 04:02:45;;;;;;;;;;;;;;;;;;;;;
2024/04/21 04:05:55;;;;;;;;;1.75;1.75;;;;;9.94;59.31;100484.47;146618;569;46021;-76
2024/04/21 04:09:07;;;;;;;;;2.50;1.75;;;;;9.36;59.34;100371.94;146602;630;47909;-71
2024/04/21 04:12:02;;;;;;;;;5.00;2.75;;;;;10.14;60.24;100502.69;146604;564;47008;-72
2024/04/21 04:15:02;;;;;;;;;2.50;2.00;;;;;10.29;60.53;100500.00;146611;659;46010;-72
2024/04/21 04:17:54;;;;;;;;;2.75;2.50;;;;;10.40;60.69;100504.00;146616;631;46020;-72
2024/04/21 04:20:53;;;;;;;;;3.00;2.00;;;;;10.46;60.65;100501.69;146609;611;47017;-72
2024/04/21 04:24:00;;;;;;;;;2.75;2.75;;;;;10.48;60.57;100510.44;146617;632;46008;-72
2024/04/21 04:27:26;;;;;;;;;9.00;8.50;;;;;10.45;61.36;100515.47;146611;595;46016;-74
2024/04/21 04:30:47;;;;;;;;;8.50;8.00;;;;;10.42;61.14;100520.53;146614;563;47008;-75
2024/04/21 04:33:42;;;;;;;;;4.75;3.50;;;;;10.46;62.08;100521.56;146612;614;46010;-74
2024/04/21 04:36:41;;;;;;;;;3.00;3.00;;;;;10.59;61.49;100519.63;146613;640;47008;-74
2024/04/21 04:39:49;;;;;;;;;4.00;3.25;;;;;10.35;61.18;100428.62;146610;572;47010;-73
2024/04/21 04:42:48;;;;;;;;;2.50;2.50;;;;;11.20;61.37;100521.59;146606;581;45021;-73
2024/04/21 04:46:08;;;;;;;;;3.50;2.50;;;;;11.53;59.53;100524.81;146615;611;46030;-72
2024/04/21 04:49:08;;;;;;;;;2.75;2.25;;;;;11.82;58.83;100525.19;146613;598;46912;-76
2024/04/21 04:52:07;;;;;;;;;1.75;1.50;;;;;12.12;58.16;100527.31;146610;564;47016;-75
2024/04/21 04:55:08;;;;;;;;;2.00;2.00;;;;;12.46;59.03;100527.91;146616;563;46020;-76
2024/04/21 04:58:22;;;;;;;;;2.00;2.00;;;;;12.87;57.49;100523.44;146609;564;46911;-75
2024/04/21 05:01:33;;;;;;;;;4.75;3.00;;;;;13.22;55.58;100508.28;146616;609;46020;-75
2024/04/21 05:04:37;;;;;;;;;4.50;3.50;;;;;13.50;54.97;100514.53;146612;587;46016;-73
2024/04/21 05:07:32;;;;;;;;;3.00;1.75;;;;;13.78;52.27;100508.56;146617;592;46020;-75
2024/04/21 05:10:43;;;;;;;;;2.75;1.00;;;;;14.07;50.84;100504.34;146610;565;46016;-75
2024/04/21 05:14:03;;;;;;;;;;;;;;;;;;;;;
2024/04/21 05:16:58;;;;;;;;;2.00;2.00;;;;;14.48;50.83;100503.06;146609;615;47016;-72
2024/04/21 05:20:16;;;;;;;;;1.50;1.50;;;;;14.22;51.58;100437.03;146613;597;46020;-72
2024/04/21 05:23:22;;;;;;;;;;;;;;;;;;;;;
2024/04/21 05:26:20;;;;;;;;;3.00;3.00;;;;;15.04;50.56;100492.62;146613;615;47008;-71
2024/04/21 05:29:23;;;;;;;;;3.00;1.75;;;;;15.29;47.38;100493.34;146608;577;46010;-72
2024/04/21 05:32:46;;;;;;;;;;;;;;;;;;;;;
2024/04/21 05:36:05;;;;;;;;;5.50;4.50;;;;;15.92;48.51;100499.47;146609;607;46909;-73
2024/04/21 05:39:24;;;;;;;;;;;;;;;;;;;;;
2024/04/21 05:42:39;;;;;;;;;3.00;3.00;;;;;16.46;49.33;100495.56;146607;679;47013;-72
2024/04/21 05:45:41;;;;;;;;;2.50;2.25;;;;;16.69;46.29;100496.09;146600;620;47008;-71
2024/04/21 05:48:46;;;;;;;;;5.00;5.00;;;;;16.90;46.01;100495.72;146606;601;47010;-72
2024/04/21 05:51:38;;;;;;;;;4.00;4.00;;;;;17.12;46.03;100509.28;146614;622;46021;-73
2024/04/21 05:54:46;;;;;;;;;8.00;7.50;;;;;17.31;46.41;100501.81;146609;563;47010;-72
2024/04/21 05:57:41;;;;;;;;;7.00;6.00;;;;;17.48;47.34;100496.94;146615;644;46021;-72
2024/04/21 06:00:37;;;;;;;;;7.25;4.50;;;;;17.69;45.42;100493.81;146610;633;46016;-71
2024/04/21 06:03:52;;;;;;;;;6.50;6.50;;;;;17.86;43.23;100503.78;146613;570;47010;-71
2024/04/21 06:07:08;;;;;;;;;3.75;3.75;;;;;17.95;42.65;100501.34;146609;611;47010;-70
2024/04/21 06:10:17;;;;;;;;;10.75;9.25;;;;;18.07;44.57;100503.25;146613;702;46008;-72
2024/04/21 06:13:27;;;;;;;;;6.75;5.50;;;;;18.28;44.16;100493.12;146612;565;46016;-71
2024/04/21 06:16:32;;;;;;;;;12.25;10.00;;;;;18.46;43.77;100500.41;146604;572;46020;-71
2024/04/21 06:19:53;;;;;;;;;10.00;10.00;;;;;17.93;45.74;100379.75;146605;607;46017;-70
2024/04/21 06:23:00;;;;;;;;;10.25;10.00;;;;;18.07;44.44;100367.75;146608;659;46020;-70
2024/04/21 06:25:56;;;;;;;;;5.50;4.25;;;;;18.89;38.28;100475.69;146604;646;46016;-73
2024/04/21 06:29:01;;;;;;;;;;;;;;;;;;;;;
2024/04/21 06:31:57;;;;;;;;;7.75;7.75;;;;;19.00;40.40;100480.19;146611;622;46016;-70
2024/04/21 06:35:06;;;;;;;;;11.25;9.25;;;;;18.30;42.56;100354.94;146611;670;46008;-72
2024/04/21 06:38:07;;;;;;;;;9.25;7.50;;;;;19.10;43.06;100484.75;146608;687;47010;-70
2024/04/21 06:41:25;;;;;;;;;7.00;6.25;;;;;19.26;41.33;100484.06;146603;584;47020;-71
2024/04/21 06:44:22;;;;;;;;;8.75;7.00;;;;;19.45;41.00;100494.78;146606;570;46016;-71
2024/04/21 06:47:18;;;;;;;;;8.25;5.75;;;;;19.53;42.75;100491.37;146602;643;46020;-71
2024/04/21 06:50:14;;;;;;;;;14.00;11.00;;;;;19.64;41.70;100481.00;146611;597;46016;-71
2024/04/21 06:53:23;;;;;;;;;9.00;8.25;;;;;19.68;40.99;100480.16;146607;636;46008;-71
2024/04/21 06:56:28;;;;;;;;;9.00;7.50;;;;;19.62;39.38;100477.44;146610;693;47011;-71
2024/04/21 06:59:23;;;;;;;;;10.00;8.25;;;;;19.55;39.10;100481.75;146616;618;46008;-71
2024/04/21 07:02:37;;;;;;;;;;;;;;;;;;;;;
2024/04/21 07:05:43;;;;;;;;;9.00;7.75;;;;;19.29;40.90;100481.47;146613;736;46008;-71
2024/04/21 07:08:50;;;;;;;;;8.50;6.25;;;;;19.35;42.65;100478.91;146611;581;46012;-71
2024/04/21 07:12:00;;;;;;;;;8.50;8.00;;;;;19.41;40.41;100474.56;146610;651;46917;-70
2024/04/21 07:15:06;;;;;;;;;9.25;8.00;;;;;19.51;40.61;100476.44;146608;588;46016;-70
2024/04/21 07:18:23;;;;;;;;;7.50;6.00;;;;;18.87;41.54;100355.69;146601;581;46020;-69
2024/04/21 07:21:23;;;;;;;;;8.00;6.25;;;;;19.60;41.88;100481.81;146613;634;46010;-69
2024/04/21 07:24:18;;;;;;;;;5.67;5.67;;;;;19.79;41.19;100480.28;146615;606;46020;-69
2024/04/21 07:27:14;;;;;;;;;9.50;7.50;;;;;19.92;40.01;100483.91;146608;564;47017;-71
2024/04/21 07:30:19;;;;;;;;;4.50;4.25;;;;;19.90;39.67;100478.63;146612;626;47008;-70
2024/04/21 07:33:23;;;;;;;;;5.00;5.00;;;;;19.91;41.36;100482.16;146612;615;46909;-70
2024/04/21 07:36:17;;;;;;;;;8.00;5.33;;;;;19.90;40.79;100475.09;146618;622;46020;-70
2024/04/21 07:39:29;;;;;;;;;6.75;6.00;;;;;19.96;42.02;100477.78;146612;565;46016;-70
2024/04/21 07:42:41;;;;;;;;;5.00;5.00;;;;;20.02;40.21;100480.47;146612;628;48008;-72
2024/04/21 07:45:51;;;;;;;;;6.50;4.75;;;;;20.04;43.31;100476.12;146609;607;46016;-71
2024/04/21 07:49:01;;;;;;;;;5.00;5.00;;;;;19.43;42.38;100352.78;146605;621;47008;-70
2024/04/21 07:51:56;;;;;;;;;5.25;4.75;;;;;20.17;40.85;100475.34;146610;574;46028;-70
2024/04/21 07:55:03;;;;;;;;;4.75;4.75;;;;;20.26;41.03;100480.69;146614;652;46020;-70
2024/04/21 07:58:15;;;;;;;;;4.67;3.00;;;;;20.20;41.30;100472.75;146609;709;46017;-70
2024/04/21 08:01:13;;;;;;;;;4.67;4.33;;;;;20.22;42.26;100472.78;146617;578;46008;-70
2024/04/21 08:04:09;;;;;;;;;5.00;5.00;;;;;20.36;43.02;100472.88;146610;673;46010;-69
2024/04/21 08:07:14;;;;;;;;;5.25;4.25;;;;;20.48;40.76;100471.19;146616;604;46008;-71
2024/04/21 08:10:17;;;;;;;;;11.75;7.25;;;;;20.53;42.16;100471.28;146609;570;47016;-70
2024/04/21 08:13:13;;;;;;;;;7.75;6.00;;;;;20.51;40.34;100465.97;146613;705;47008;-71
2024/04/21 08:16:13;;;;;;;;;8.50;7.50;;;;;20.38;39.43;100461.47;146606;708;47934;-70
2024/04/21 08:19:08;;;;;;;;;5.00;5.00;;;;;20.34;39.06;100459.66;146601;584;47008;-70
2024/04/21 08:22:16;;;;;;;;;3.00;3.00;;;;;20.33;39.27;100428.06;146612;602;46016;-71
2024/04/21 08:25:36;;;;;;;;;7.67;5.67;;;;;20.75;42.59;100456.47;146613;580;47021;-69
2024/04/21 08:28:39;;;;;;;;;5.00;5.00;;;;;21.10;40.64;100448.72;146607;591;46016;-70
2024/04/21 08:31:38;;;;;;;;;4.00;4.00;;;;;21.42;39.99;100453.25;146615;570;46020;-70
2024/04/21 08:34:36;;;;;;;;;6.00;5.75;;;;;21.75;41.44;100447.16;146609;571;46012;-71
2024/04/21 08:37:34;;;;;;;;;5.33;4.33;;;;;22.00;38.35;100448.06;146613;569;47020;-70
2024/04/21 08:40:28;;;;;;;;;4.50;4.00;;;;;22.13;39.22;100431.31;146606;604;47013;-70
2024/04/21 08:43:37;;;;;;;;;4.67;4.67;;;;;22.09;39.49;100444.56;146614;631;46020;-70
2024/04/21 08:46:55;;;;;;;;;3.00;3.00;;;;;21.98;38.71;100443.66;146609;588;46016;-71
2024/04/21 08:49:53;;;;;;;;;3.33;3.33;;;;;21.80;38.84;100444.53;146604;575;47052;-69
2024/04/21 08:53:01;;;;;;;;;4.33;4.33;;;;;21.73;39.51;100454.19;146612;654;46016;-70
2024/04/21 08:56:05;;;;;;;;;4.00;4.00;;;;;21.72;37.73;100444.53;146612;586;46008;-70
2024/04/21 08:59:20;;;;;;;;;6.00;6.00;;;;;21.57;37.26;100455.94;146608;577;46016;-71
2024/04/21 09:02:44;;;;;;;;;4.00;4.00;;;;;21.20;39.78;100462.81;146615;651;46020;-70
2024/04/21 09:06:01;;;;;;;;;3.25;3.25;;;;;20.35;39.81;100406.16;146600;658;49915;-69
2024/04/21 09:09:07;;;;;;;;;2.67;2.00;;;;;20.31;41.04;100462.28;146617;601;46020;-70
2024/04/21 09:12:20;;;;;;;;;;;;;;;;;;;;;
2024/04/21 09:15:14;;;;;;;;;2.33;2.33;;;;;19.68;40.77;100460.87;146616;587;46008;-71
2024/04/21 09:18:20;;;;;;;;;3.67;1.67;;;;;19.35;39.66;100454.37;146614;588;46017;-71
2024/04/21 09:21:31;;;;;;;;;3.00;2.00;;;;;19.07;39.81;100459.28;146605;606;47020;-69
2024/04/21 09:24:48;;;;;;;;;5.00;2.67;;;;;19.08;41.14;100458.41;146612;579;46010;-69
2024/04/21 09:27:55;;;;;;;;;3.00;2.00;;;;;19.05;38.59;100458.38;146615;660;46021;-69
2024/04/21 09:30:58;;;;;;;;;2.67;2.00;;;;;19.03;37.34;100459.22;146613;612;46030;-70
2024/04/21 09:33:44;;;;;;;;;4.00;3.00;;;;;19.05;37.79;100447.00;146697;566;46022;-67
2024/04/21 09:37:01;;;;;;;;;;;;;;;;;;;;;
2024/04/21 09:40:14;;;;;;;;;2.00;2.00;;;;;19.14;37.67;100447.09;146619;686;46012;-70
2024/04/21 09:43:10;;;;;;;;;4.00;2.00;;;;;19.35;39.55;100443.84;146617;647;46014;-69
2024/04/21 09:46:11;;;;;;;;;4.00;4.00;;;;;19.55;38.09;100437.03;146618;619;47020;-68
2024/04/21 09:49:08;;;;;;;;;2.00;2.00;;;;;19.68;38.88;100422.28;146616;595;46915;-67
2024/04/21 09:52:08;;;;;;;;;4.00;3.00;;;;;19.73;36.60;100412.69;146619;601;46028;-66
2024/04/21 09:55:08;;;;;;;;;4.00;3.33;;;;;19.71;35.23;100414.44;146618;613;46012;-67
2024/04/21 09:58:30;;;;;;;;;2.33;2.33;;;;;19.69;35.46;100403.03;146617;571;46020;-68
2024/04/21 10:01:41;;;;;;;;;7.25;4.00;;;;;19.66;39.59;100400.38;146614;611;47913;-67
2024/04/21 10:04:44;;;;;;;;;4.67;2.00;;;;;19.70;35.78;100389.00;146614;643;46021;-69
2024/04/21 10:07:55;;;;;;;;;3.00;3.00;;;;;19.69;35.86;100381.06;146614;609;47012;-68
2024/04/21 10:11:05;;;;;;;;;6.33;6.00;;;;;19.59;36.41;100385.34;146619;695;46021;-68
2024/04/21 10:14:12;;;;;;;;;4.33;4.33;;;;;19.52;36.70;100376.53;146616;569;46016;-69
2024/04/21 10:17:13;;;;;;;;;3.33;3.33;;;;;19.62;39.50;100365.25;146618;595;46020;-69
2024/04/21 10:20:30;;;;;;;;;10.50;9.00;;;;;19.92;37.51;100362.87;146616;566;47012;-70
2024/04/21 10:23:25;;;;;;;;;12.75;11.00;;;;;20.07;35.02;100328.75;146620;707;46010;-73
2024/04/21 10:26:44;;;;;;;;;4.67;4.33;;;;;20.47;35.43;100350.94;146614;582;46017;-73
2024/04/21 10:29:58;;;;;;;;;3.33;3.33;;;;;20.66;35.30;100346.66;146619;626;46012;-73
2024/04/21 10:33:32;;;;;;;;;44.50;36.50;;;;;20.45;33.76;100281.56;146614;581;47016;-73
2024/04/21 10:36:41;;;;;;;;;3.00;3.00;;;;;20.97;35.75;100344.12;146620;573;46020;-70
2024/04/21 10:40:22;;;;;;;;;7.00;5.00;;;;;20.89;37.58;100294.00;146616;642;46016;-71
2024/04/21 10:43:34;;;;;;;;;1.33;1.33;;;;;21.52;34.83;100327.53;146622;573;47010;-71
2024/04/21 10:46:35;;;;;;;;;1.00;1.00;;;;;21.91;35.91;100337.19;146617;698;46913;-71
2024/04/21 10:49:43;;;;;;;;;36.50;30.00;;;;;22.21;34.05;100320.47;146619;572;46020;-70
2024/04/21 10:52:41;;;;;;;;;0.00;0.00;;;;;22.32;30.67;100323.91;146606;614;48012;-70
2024/04/21 10:55:58;;;;;;;;;5.33;4.33;;;;;22.16;34.67;100313.38;146621;589;47010;-72
2024/04/21 10:58:55;;;;;;;;;8.75;8.00;;;;;21.97;32.48;100315.19;146616;588;47025;-69
2024/04/21 11:02:00;;;;;;;;;3.67;2.67;;;;;21.15;33.38;100217.63;146626;566;46010;-70
2024/04/21 11:04:53;;;;;;;;;1.00;1.00;;;;;21.48;32.05;100309.94;146618;574;46025;-71
2024/04/21 11:08:07;;;;;;;;;;;;;;;;;;;;;
2024/04/21 11:11:07;;;;;;;;;2.00;2.00;;;;;21.13;34.57;100297.59;146619;634;46016;-68
2024/04/21 11:14:09;;;;;;;;;3.00;2.33;;;;;21.11;33.05;100294.06;146621;565;46020;-70
2024/04/21 11:17:24;;;;;;;;;1.33;1.33;;;;;20.75;33.40;100227.25;146619;664;46915;-68
2024/04/21 11:20:32;;;;;;;;;;;;;;;;;;;;;
2024/04/21 11:23:32;;;;;;;;;2.67;2.33;;;;;21.07;34.07;100274.72;146612;616;47016;-69
2024/04/21 11:26:42;;;;;;;;;;;;;;;;;;;;;
2024/04/21 11:29:41;;;;;;;;;1.33;1.33;;;;;21.06;32.15;100280.87;146620;603;46012;-71
2024/04/21 11:32:34;;;;;;;;;2.33;1.00;;;;;21.18;32.68;100274.72;146618;564;47021;-69
2024/04/21 11:35:43;;;;;;;;;0.67;0.67;;;;;21.36;32.23;100261.56;146619;630;46012;-70
2024/04/21 11:38:45;;;;;;;;;1.00;1.00;;;;;21.62;31.93;100253.66;146618;655;46020;-70
2024/04/21 11:42:09;;;;;;;;;2.00;2.00;;;;;21.75;33.53;100264.22;146618;652;46016;-69
2024/04/21 11:45:41;;;;;;;;;1.00;0.33;;;;;21.46;33.37;100212.34;146620;583;46020;-69
2024/04/21 11:48:41;;;;;;;;;1.00;1.00;;;;;21.71;31.79;100262.44;146620;627;47012;-70
2024/04/21 11:51:44;;;;;;;;;1.00;1.00;;;;;21.60;32.01;100254.53;146624;659;46020;-70
2024/04/21 11:55:21;;;;;;;;;;;;;;;;;;;;;
2024/04/21 11:58:31;;;;;;;;;1.33;1.33;;;;;21.12;33.02;100246.63;146621;607;46020;-69
2024/04/21 12:01:25;;;;;;;;;1.67;1.00;;;;;20.90;33.83;100243.09;146621;581;46013;-69
2024/04/21 12:04:45;;;;;;;;;;;;;;;;;;;;;
2024/04/21 12:07:47;;;;;;;;;1.00;0.33;;;;;20.77;35.30;100222.84;146620;590;46016;-70
2024/04/21 12:10:53;;;;;;;;;4.33;2.00;;;;;20.67;34.76;100219.31;146621;576;47031;-70
2024/04/21 12:14:27;;;;;;;;;;;;;;;;;;;;;
2024/04/21 12:17:48;;;;;;;;;1.00;1.00;;;;;20.65;36.39;100209.66;146623;569;46010;-68
2024/04/21 12:20:46;;;;;;;;;0.67;0.67;;;;;20.58;36.53;100219.28;146621;591;47034;-69
2024/04/21 12:24:00;;;;;;;;;2.33;0.33;;;;;20.20;37.13;100153.34;146622;610;46020;-69
2024/04/21 12:27:01;;;;;;;;;1.33;1.33;;;;;20.36;36.08;100199.87;146619;688;47016;-70
2024/04/21 12:29:58;;;;;;;;;2.00;2.00;;;;;20.29;36.65;100200.75;146623;579;46010;-69
2024/04/21 12:32:55;;;;;;;;;1.00;0.67;;;;;20.22;37.93;100184.06;146621;603;46014;-69
2024/04/21 12:35:51;;;;;;;;;1.00;0.33;;;;;20.23;37.40;100177.91;146620;572;46020;-68
2024/04/21 12:38:54;;;;;;;;;2.00;2.00;;;;;20.28;37.66;100188.47;146616;586;47017;-70
2024/04/21 12:42:04;;;;;;;;;;;;;;;;;;;;;
2024/04/21 12:45:17;;;;;;;;;;;;;;;;;;;;;
2024/04/21 12:48:20;;;;;;;;;1.00;1.00;;;;;20.00;38.69;100159.41;146623;569;47010;-69
2024/04/21 12:51:23;;;;;;;;;1.67;1.00;;;;;20.04;40.12;100157.69;146620;593;46012;-68
2024/04/21 12:54:24;;;;;;;;;0.00;0.00;;;;;19.90;40.60;100117.25;146622;584;46012;-68
2024/04/21 12:57:34;;;;;;;;;;;;;;;;;;;;;
2024/04/21 13:00:59;;;;;;;;;;;;;;;;;;;;;
2024/04/21 13:04:07;;;;;;;;;;;;;;;;;;;;;
2024/04/21 13:07:13;;;;;;;;;1.33;1.33;;;;;20.27;41.02;100139.31;146622;580;47013;-68
2024/04/21 13:10:23;;;;;;;;;2.67;1.67;;;;;19.86;39.67;100073.41;146618;631;46016;-69
2024/04/21 13:13:24;;;;;;;;;1.00;1.00;;;;;20.26;39.70;100142.81;146617;573;47020;-69
2024/04/21 13:16:25;;;;;;;;;2.00;2.00;;;;;20.26;40.68;100121.75;146620;575;46016;-70
2024/04/21 13:19:45;;;;;;;;;2.67;0.00;;;;;19.82;40.74;100047.09;146623;599;46010;-68
2024/04/21 13:22:42;;;;;;;;;2.00;2.00;;;;;20.32;40.78;100134.94;146617;587;46915;-69
2024/04/21 13:26:02;;;;;;;;;2.67;1.00;;;;;20.40;40.83;100133.19;146626;563;46010;-69
2024/04/21 13:29:06;;;;;;;;;3.25;2.00;;;;;20.51;40.95;100138.47;146615;598;46016;-69
2024/04/21 13:32:10;;;;;;;;;1.00;1.00;;;;;20.58;41.14;100139.41;146623;601;46020;-68
2024/04/21 13:35:02;;;;;;;;;4.50;4.50;;;;;20.60;40.60;100142.94;146620;613;46019;-69
2024/04/21 13:38:16;;;;;;;;;5.00;3.67;;;;;20.55;40.68;100140.28;146620;686;46031;-72
2024/04/21 13:41:21;;;;;;;;;6.00;6.00;;;;;20.45;41.56;100083.19;146618;632;46012;-70
2024/04/21 13:44:25;;;;;;;;;3.33;3.33;;;;;20.75;41.33;100119.22;146620;605;47010;-72
2024/04/21 13:47:27;;;;;;;;;5.50;4.25;;;;;20.81;40.47;100126.22;146614;580;46017;-70
2024/04/21 13:50:19;;;;;;;;;6.00;4.00;;;;;20.81;40.76;100127.12;146623;566;46010;-71
2024/04/21 13:53:22;;;;;;;;;5.00;3.25;;;;;20.79;41.31;100120.09;146616;598;47012;-70
2024/04/21 13:56:20;;;;;;;;;3.00;2.67;;;;;20.79;41.95;100125.37;146619;625;46020;-69
2024/04/21 13:59:30;;;;;;;;;3.00;2.67;;;;;20.74;41.94;100130.62;146618;615;46016;-70
2024/04/21 14:02:47;;;;;;;;;6.00;5.00;;;;;20.19;41.62;100062.09;146625;611;46010;-70
2024/04/21 14:05:51;;;;;;;;;4.00;4.00;;;;;20.57;42.46;100138.53;146622;569;46012;-69
2024/04/21 14:09:02;;;;;;;;;2.00;2.00;;;;;20.52;42.41;100148.16;146622;575;46021;-70
2024/04/21 14:12:05;;;;;;;;;1.67;1.67;;;;;20.47;42.88;100150.78;146619;614;46012;-69
2024/04/21 14:15:14;;;;;;;;;2.33;2.00;;;;;20.37;42.56;100153.38;146625;611;46010;-69
2024/04/21 14:18:36;;;;;;;;;;;;;;;;;;;;;
2024/04/21 14:21:29;;;;;;;;;1.00;1.00;;;;;20.37;43.26;100153.38;146624;625;46010;-69
2024/04/21 14:24:38;;;;;;;;;2.00;1.33;;;;;20.01;43.38;100095.38;146616;689;46016;-71
2024/04/21 14:27:49;;;;;;;;;;;;;;;;;;;;;
2024/04/21 14:30:58;;;;;;;;;0.00;0.00;;;;;20.44;42.89;100140.22;146621;565;46014;-69
2024/04/21 14:34:05;;;;;;;;;4.67;0.67;;;;;20.48;42.99;100149.00;146620;586;46020;-69
2024/04/21 14:37:08;;;;;;;;;0.00;0.00;;;;;20.52;42.82;100153.44;146621;600;47012;-68
2024/04/21 14:40:14;;;;;;;;;1.67;1.00;;;;;20.57;42.26;100146.44;146618;576;47020;-69
2024/04/21 14:43:35;;;;;;;;;;;;;;;;;;;;;
2024/04/21 14:46:52;;;;;;;;;3.00;3.00;;;;;20.58;42.11;100158.72;146620;575;47010;-69
2024/04/21 14:50:09;;;;;;;;;2.00;1.00;;;;;20.24;42.20;100113.84;146618;595;46034;-70
2024/04/21 14:53:02;;;;;;;;;2.00;2.00;;;;;20.71;42.34;100160.47;146623;565;45021;-70
2024/04/21 14:56:10;;;;;;;;;1.67;1.67;;;;;20.95;41.11;100156.97;146619;569;47012;-69
2024/04/21 14:59:08;;;;;;;;;1.00;1.00;;;;;21.18;39.02;100148.16;146622;597;46021;-69
2024/04/21 15:02:22;;;;;;;;;1.00;0.33;;;;;21.04;41.36;100106.03;146618;682;46016;-68